Time;durP1;ratioP1;P1;durP2;ratioP2;P2;SDS_P1;SDS_P2;PMS_P1;PMS_P2;Temp;Humidity;BMP_temperature;BMP_pressure;BME280_temperature;BME280_humidity;BME280_pressure;Samples;Min_cycle;Max_cycle;Signal;HPM_P1;HPM_P2
2022/04/04 00:01:07;;;;;;;14.32;8.52;;;;;;;-0.84;98.55;101959.78;5110226;28;20032;-74
2022/04/04 00:03:32;;;;;;;16.27;9.15;;;;;;;-0.86;98.37;101952.84;5096536;28;20020;-74
2022/04/04 00:05:57;;;;;;;14.07;9.55;;;;;;;-0.85;98.82;101952.91;5091906;28;20040;-74
2022/04/04 00:08:23;;;;;;;15.13;9.63;;;;;;;-0.83;99.23;101945.28;5107189;28;20505;-73
2022/04/04 00:10:48;;;;;;;16.13;9.02;;;;;;;-0.81;99.05;101944.53;5093223;28;20063;-74
2022/04/04 00:13:14;;;;;;;15.32;9.48;;;;;;;-0.81;98.84;101941.13;5109768;28;20110;-74
2022/04/04 00:15:39;;;;;;;12.27;8.15;;;;;;;-0.81;98.94;101929.19;5111185;28;20031;-73
2022/04/04 00:18:06;;;;;;;14.45;9.32;;;;;;;-0.79;98.83;101930.09;5096677;28;20035;-74
2022/04/04 00:20:31;;;;;;;13.43;8.38;;;;;;;-0.79;98.76;101929.22;5092850;28;20032;-74
2022/04/04 00:22:57;;;;;;;13.00;8.55;;;;;;;-0.82;98.94;101923.97;5101912;28;20031;-74
2022/04/04 00:25:22;;;;;;;14.52;9.05;;;;;;;-0.83;98.46;101919.69;5112305;28;20054;-74
2022/04/04 00:27:50;;;;;;;13.88;9.02;;;;;;;-0.86;99.07;101912.75;5095269;28;20040;-74
2022/04/04 00:30:15;;;;;;;16.83;9.40;;;;;;;-0.78;99.06;101916.50;5091832;28;20020;-74
2022/04/04 00:32:41;;;;;;;15.60;8.88;;;;;;;-0.79;98.89;101914.72;5099492;28;20030;-74
2022/04/04 00:35:07;;;;;;;13.27;8.85;;;;;;;-0.76;98.83;101914.84;5109500;28;20753;-74
2022/04/04 00:37:34;;;;;;;15.95;9.45;;;;;;;-0.77;98.71;101912.25;5102505;28;20032;-73
2022/04/04 00:39:59;;;;;;;13.90;9.13;;;;;;;-0.81;98.52;101902.69;5098577;28;20480;-74
2022/04/04 00:42:24;;;;;;;20.48;9.82;;;;;;;-0.82;98.00;101899.28;5099640;28;20062;-74
2022/04/04 00:44:51;;;;;;;15.35;10.02;;;;;;;-0.84;98.65;101900.88;5091653;28;20444;-74
2022/04/04 00:47:17;;;;;;;21.10;9.82;;;;;;;-0.86;98.59;101897.38;5091323;28;20058;-74
2022/04/04 00:49:42;;;;;;;18.58;9.90;;;;;;;-0.85;98.48;101905.94;5095853;28;20071;-74
2022/04/04 00:52:08;;;;;;;16.88;10.43;;;;;;;-0.88;98.30;101895.56;5099397;28;20527;-74
2022/04/04 00:54:34;;;;;;;18.25;11.10;;;;;;;-0.92;98.97;101889.44;5091422;28;20024;-74
2022/04/04 00:57:02;;;;;;;14.98;10.40;;;;;;;-0.93;98.42;101887.72;5090701;28;20369;-74
2022/04/04 00:59:27;;;;;;;16.13;10.27;;;;;;;-0.94;98.34;101885.97;5102460;28;20035;-74
2022/04/04 01:01:53;;;;;;;15.57;10.85;;;;;;;-0.95;99.16;101882.56;5107640;28;20073;-74
2022/04/04 01:04:18;;;;;;;13.30;10.10;;;;;;;-0.98;98.78;101876.44;5091686;28;20101;-74
2022/04/04 01:06:44;;;;;;;15.45;10.52;;;;;;;-1.02;98.68;101871.97;5090997;28;20081;-74
2022/04/04 01:09:14;;;;;;;20.58;11.85;;;;;;;-0.98;98.63;101873.88;5108299;28;20035;-74
2022/04/04 01:12:07;;;;;;;16.67;10.93;;;;;;;-1.00;99.56;101862.69;5109010;28;20035;-74
2022/04/04 01:14:34;;;;;;;18.15;10.85;;;;;;;-1.02;98.84;101861.75;5099232;28;20463;-73
2022/04/04 01:16:59;;;;;;;16.23;10.48;;;;;;;-1.00;99.43;101853.31;5095085;28;20066;-73
2022/04/04 01:19:24;;;;;;;18.70;10.38;;;;;;;-0.98;99.04;101854.28;5091998;28;20483;-74
2022/04/04 01:21:53;;;;;;;19.20;11.38;;;;;;;-0.97;98.90;101847.47;5093206;28;20024;-74
2022/04/04 01:24:19;;;;;;;18.20;10.13;;;;;;;-0.95;98.85;101848.38;5108866;28;20023;-74
2022/04/04 01:26:46;;;;;;;17.83;9.90;;;;;;;-0.93;98.96;101836.50;5104681;28;20032;-74
2022/04/04 01:29:11;;;;;;;13.85;10.30;;;;;;;-0.92;98.68;101840.81;5091094;28;20085;-74
2022/04/04 01:31:36;;;;;;;18.40;10.27;;;;;;;-0.95;98.30;101833.91;5092335;28;20028;-73
2022/04/04 01:34:02;;;;;;;18.67;10.85;;;;;;;-0.93;98.74;101828.84;5108767;28;20530;-74
2022/04/04 01:36:27;;;;;;;16.95;10.40;;;;;;;-0.93;98.34;101821.16;5109877;28;20031;-74
2022/04/04 01:38:52;;;;;;;16.77;10.48;;;;;;;-0.94;98.19;101811.75;5091383;28;20028;-74
2022/04/04 01:41:17;;;;;;;17.80;10.13;;;;;;;-0.97;98.12;101807.38;5096258;28;20118;-74
2022/04/04 01:43:43;;;;;;;19.13;11.02;;;;;;;-0.99;98.57;101803.88;5108385;28;20016;-73
2022/04/04 01:49:01;;;;;;;16.23;10.45;;;;;;;-1.01;97.79;101795.28;5104925;28;20047;-74
2022/04/04 01:51:27;;;;;;;15.30;9.98;;;;;;;-0.97;97.92;101792.00;5107411;28;20036;-73
2022/04/04 01:53:53;;;;;;;16.90;10.40;;;;;;;-0.97;97.30;101780.91;5093188;28;20036;-74
2022/04/04 01:56:19;;;;;;;12.80;8.88;;;;;;;-0.97;97.61;101778.34;5090917;28;20036;-73
2022/04/04 01:58:44;;;;;;;14.60;9.50;;;;;;;-0.98;97.59;101766.38;5098813;28;20035;-74
2022/04/04 02:01:16;;;;;;;19.05;10.30;;;;;;;-0.97;97.47;101766.41;5113830;28;20080;-74
2022/04/04 02:03:43;;;;;;;15.80;9.75;;;;;;;-0.95;97.46;101763.91;5098354;28;20089;-73
2022/04/04 02:06:08;;;;;;;16.88;9.52;;;;;;;-0.92;97.12;101760.59;5096175;28;20024;-74
2022/04/04 02:08:34;;;;;;;15.45;9.88;;;;;;;-0.90;97.01;101756.41;5107602;28;20487;-74
2022/04/04 02:11:01;;;;;;;18.75;10.07;;;;;;;-0.89;96.73;101753.91;5101083;28;20047;-74
2022/04/04 02:13:27;;;;;;;14.52;10.80;;;;;;;-0.86;97.17;101746.34;5106122;28;20360;-73
2022/04/04 02:15:53;;;;;;;16.13;9.35;;;;;;;-0.84;96.75;101752.41;5108871;28;20018;-74
2022/04/04 02:18:19;;;;;;;12.18;9.25;;;;;;;-0.80;96.82;101744.00;5094118;28;20059;-74
2022/04/04 02:20:45;;;;;;;14.30;8.90;;;;;;;-0.76;96.10;101740.72;5101808;28;20118;-74
2022/04/04 02:23:11;;;;;;;14.73;9.07;;;;;;;-0.69;96.14;101736.72;5103266;28;20596;-74
2022/04/04 02:25:37;;;;;;;12.77;9.07;;;;;;;-0.64;95.77;101729.22;5093981;28;20082;-74
2022/04/04 02:28:03;;;;;;;15.02;8.98;;;;;;;-0.61;95.35;101725.06;5103361;28;20020;-73
2022/04/04 02:30:28;;;;;;;13.77;9.15;;;;;;;-0.53;95.31;101725.34;5094059;28;20067;-74
2022/04/04 02:32:53;;;;;;;13.75;8.50;;;;;;;-0.52;94.99;101716.84;5094956;28;20123;-73
2022/04/04 02:35:19;;;;;;;14.63;9.05;;;;;;;-0.46;95.31;101709.38;5094261;28;20073;-74
2022/04/04 02:37:45;;;;;;;14.18;8.77;;;;;;;-0.47;95.42;101702.50;5093655;28;20051;-74
2022/04/04 02:40:10;;;;;;;14.95;8.95;;;;;;;-0.51;94.80;101691.28;5094971;28;20036;-74
2022/04/04 02:42:35;;;;;;;15.40;9.18;;;;;;;-0.41;94.25;101699.28;5100971;28;20020;-74
2022/04/04 02:45:01;;;;;;;13.88;8.68;;;;;;;-0.35;94.65;101695.25;5108884;28;20032;-74
2022/04/04 02:47:26;;;;;;;14.27;8.88;;;;;;;-0.31;94.20;101679.16;5101486;28;20424;-74
2022/04/04 02:49:52;;;;;;;13.20;8.10;;;;;;;-0.28;94.35;101691.22;5093604;28;20054;-74
2022/04/04 02:52:18;;;;;;;16.75;8.65;;;;;;;-0.30;93.91;101670.63;5098143;28;20395;-74
2022/04/04 02:54:44;;;;;;;16.27;8.38;;;;;;;-0.25;93.67;101673.38;5113378;28;20042;-74
2022/04/04 02:57:09;;;;;;;12.43;8.13;;;;;;;-0.21;93.86;101666.66;5103516;28;20047;-74
2022/04/04 02:59:35;;;;;;;11.88;8.32;;;;;;;-0.16;93.33;101662.56;5093601;28;20044;-74
2022/04/04 03:02:00;;;;;;;14.80;8.30;;;;;;;-0.11;93.51;101650.78;5101924;28;20022;-74
2022/04/04 03:04:25;;;;;;;12.70;7.65;;;;;;;-0.12;92.94;101649.03;5108310;28;20023;-74
2022/04/04 03:06:51;;;;;;;11.05;7.45;;;;;;;-0.07;93.63;101647.47;5112658;28;20023;-74
2022/04/04 03:09:16;;;;;;;13.18;8.10;;;;;;;-0.07;93.33;101642.34;5113516;27;20097;-74
2022/04/04 03:11:41;;;;;;;11.90;7.97;;;;;;;-0.09;93.19;101633.75;5110185;28;20023;-74
2022/04/04 03:14:06;;;;;;;12.10;7.72;;;;;;;-0.07;93.39;101626.97;5113744;28;20466;-74
2022/04/04 03:16:32;;;;;;;11.63;7.60;;;;;;;-0.08;92.75;101633.78;5110550;28;20039;-74
2022/04/04 03:18:59;;;;;;;12.75;8.15;;;;;;;-0.06;93.31;101626.16;5092414;28;20075;-74
2022/04/04 03:21:25;;;;;;;13.68;8.70;;;;;;;-0.07;93.48;101616.72;5099016;27;20411;-74
2022/04/04 03:23:50;;;;;;;16.80;8.05;;;;;;;-0.02;93.44;101608.34;5112699;28;20035;-74
2022/04/04 03:26:16;;;;;;;12.75;7.90;;;;;;;0.01;93.23;101607.59;5111195;28;20027;-74
2022/04/04 03:28:41;;;;;;;14.30;8.15;;;;;;;0.08;93.39;101598.41;5092905;28;20035;-73
2022/04/04 03:31:07;;;;;;;15.90;8.00;;;;;;;0.13;93.22;101596.84;5092549;28;20471;-74
2022/04/04 03:33:34;;;;;;;12.23;7.57;;;;;;;0.18;92.93;101601.28;5110318;28;20502;-73
2022/04/04 03:35:59;;;;;;;12.73;8.30;;;;;;;0.15;93.52;101588.38;5111572;28;20058;-74
2022/04/04 03:38:25;;;;;;;12.23;7.80;;;;;;;0.21;93.79;101595.41;5106350;28;20089;-73
2022/04/04 03:40:51;;;;;;;13.77;7.68;;;;;;;0.14;93.19;101581.50;5105374;28;20031;-74
2022/04/04 03:43:16;;;;;;;15.63;7.50;;;;;;;0.20;93.46;101574.00;5109648;28;20023;-74
2022/04/04 03:45:41;;;;;;;13.13;7.93;;;;;;;0.26;93.50;101575.00;5111896;28;20027;-74
2022/04/04 03:48:07;;;;;;;11.73;7.53;;;;;;;0.27;93.47;101571.63;5112682;28;20114;-74
2022/04/04 03:50:33;;;;;;;13.25;8.30;;;;;;;0.33;93.69;101571.81;5112772;28;20403;-74
2022/04/04 03:52:58;;;;;;;10.98;7.53;;;;;;;0.36;93.29;101556.50;5097035;28;20024;-74
2022/04/04 03:55:30;;;;;;;12.70;8.15;;;;;;;0.42;93.24;101559.25;5092146;28;20035;-74
2022/04/04 03:57:56;;;;;;;15.05;7.68;;;;;;;0.45;93.14;101551.66;5107901;28;20054;-74
2022/04/04 04:00:23;;;;;;;13.40;8.25;;;;;;;0.45;92.93;101543.94;5102157;28;20468;-74
2022/04/04 04:02:48;;;;;;;13.15;8.05;;;;;;;0.47;93.05;101552.56;5102092;28;20551;-74
2022/04/04 04:05:15;;;;;;;13.13;8.15;;;;;;;0.46;93.56;101538.00;5107201;28;20095;-74
2022/04/04 04:07:41;;;;;;;12.57;8.02;;;;;;;0.45;93.93;101539.69;5093901;28;20024;-74
2022/04/04 04:10:09;;;;;;;15.60;8.95;;;;;;;0.47;93.57;101527.78;5110363;28;20440;-74
2022/04/04 04:12:35;;;;;;;12.77;8.02;;;;;;;0.50;93.49;101531.28;5112369;28;20030;-74
2022/04/04 04:15:00;;;;;;;13.20;8.63;;;;;;;0.54;93.84;101525.41;5095461;28;20107;-74
2022/04/04 04:17:25;;;;;;;14.10;8.55;;;;;;;0.57;93.67;101525.47;5091848;28;20020;-73
2022/04/04 04:22:35;;;;;;;17.38;8.77;;;;;;;0.59;93.65;101509.31;5100785;28;20043;-74
2022/04/04 04:25:02;;;;;;;14.55;8.88;;;;;;;0.60;93.94;101512.75;5128873;27;20439;-74
2022/04/04 04:27:28;;;;;;;13.80;8.45;;;;;;;0.58;93.88;101502.41;5128494;27;20463;-74
2022/04/04 04:29:53;;;;;;;12.82;8.68;;;;;;;0.61;94.03;101499.06;5112142;28;20034;-74
2022/04/04 04:32:19;;;;;;;14.05;9.45;;;;;;;0.65;93.46;101498.31;5112141;28;20081;-74
2022/04/04 04:34:46;;;;;;;16.08;8.93;;;;;;;0.65;94.09;101494.09;5111453;28;20028;-74
2022/04/04 04:37:13;;;;;;;15.45;8.70;;;;;;;0.67;93.96;101491.53;5111875;28;20463;-74
2022/04/04 04:39:39;;;;;;;15.13;9.73;;;;;;;0.68;94.40;101481.31;5115112;27;20023;-74
2022/04/04 04:42:05;;;;;;;21.17;9.68;;;;;;;0.67;94.12;101474.44;5132129;27;20027;-74
2022/04/04 04:44:30;;;;;;;18.40;9.73;;;;;;;0.73;93.81;101467.75;5132501;27;20057;-74
2022/04/04 04:46:56;;;;;;;15.23;10.07;;;;;;;0.78;94.07;101468.72;5132432;27;20475;-74
2022/04/04 04:49:22;;;;;;;13.93;9.18;;;;;;;0.81;94.21;101463.69;5131311;27;20043;-74
2022/04/04 04:51:48;;;;;;;16.33;10.05;;;;;;;0.84;93.58;101454.34;5132299;27;20033;-74
2022/04/04 04:54:13;;;;;;;14.73;9.77;;;;;;;0.89;93.92;101459.63;5132523;27;20110;-74
2022/04/04 04:56:38;;;;;;;18.85;10.38;;;;;;;0.96;94.11;101451.25;5131743;27;20552;-74
2022/04/04 04:59:04;;;;;;;15.52;9.55;;;;;;;1.02;93.13;101445.41;5132516;27;20070;-73
2022/04/04 05:01:29;;;;;;;15.23;9.73;;;;;;;1.07;93.38;101443.81;5132218;27;20031;-74
2022/04/04 05:03:54;;;;;;;15.82;9.77;;;;;;;1.11;93.21;101437.91;5131540;27;20042;-74
2022/04/04 05:06:20;;;;;;;17.95;10.93;;;;;;;1.15;92.47;101439.75;5132058;27;20470;-74
2022/04/04 05:08:45;;;;;;;15.02;9.43;;;;;;;1.17;92.62;101427.78;5103106;28;20043;-74
2022/04/04 05:11:11;;;;;;;16.13;10.48;;;;;;;1.21;92.39;101421.91;5120381;28;20031;-74
2022/04/04 05:13:36;;;;;;;18.17;11.15;;;;;;;1.24;92.73;101414.25;5132391;27;20027;-74
2022/04/04 05:16:07;;;;;;;16.60;9.90;;;;;;;1.24;93.02;101409.13;5116198;28;20023;-74
2022/04/04 05:18:32;;;;;;;15.32;10.18;;;;;;;1.29;92.52;101406.69;5111065;28;20028;-74
2022/04/04 05:20:58;;;;;;;16.83;10.38;;;;;;;1.35;92.03;101392.28;5111398;28;20024;-74
2022/04/04 05:23:23;;;;;;;23.23;11.30;;;;;;;1.42;92.87;101397.56;5111055;28;20107;-73
2022/04/04 05:25:48;;;;;;;15.70;10.35;;;;;;;1.44;92.46;101390.72;5123881;28;20050;-74
2022/04/04 05:28:13;;;;;;;18.45;10.80;;;;;;;1.47;92.38;101383.09;5111351;28;20032;-74
2022/04/04 05:30:39;;;;;;;18.42;10.55;;;;;;;1.49;91.48;101379.72;5110765;28;20032;-74
2022/04/04 05:33:04;;;;;;;17.08;11.20;;;;;;;1.51;91.25;101377.22;5113110;28;20027;-74
2022/04/04 05:35:29;;;;;;;17.92;10.45;;;;;;;1.58;91.39;101373.94;5115273;28;20832;-74
2022/04/04 05:37:55;;;;;;;16.48;10.40;;;;;;;1.64;90.84;101377.50;5114714;28;20534;-74
2022/04/04 05:40:22;;;;;;;16.58;10.50;;;;;;;1.70;90.68;101357.88;5115305;28;20016;-74
2022/04/04 05:42:49;;;;;;;17.33;10.30;;;;;;;1.73;90.22;101348.53;5115460;28;20032;-74
2022/04/04 05:45:14;;;;;;;21.20;11.43;;;;;;;1.80;90.08;101354.69;5114428;28;20016;-74
2022/04/04 05:47:39;;;;;;;18.10;10.40;;;;;;;1.84;89.29;101347.06;5114993;28;20518;-74
2022/04/04 05:50:07;;;;;;;16.75;10.70;;;;;;;1.87;90.04;101346.28;5115138;28;20039;-74
2022/04/04 05:52:34;;;;;;;17.92;10.38;;;;;;;1.88;89.33;101348.84;5114205;28;20494;-74
2022/04/04 05:55:01;;;;;;;18.70;10.88;;;;;;;1.96;89.15;101343.88;5115196;28;20023;-74
2022/04/04 05:57:29;;;;;;;16.77;10.00;;;;;;;2.01;88.92;101338.81;5115039;28;20026;-74
2022/04/04 05:59:55;;;;;;;14.63;10.20;;;;;;;2.03;89.36;101330.31;5114229;28;20035;-74
2022/04/04 06:02:22;;;;;;;16.08;10.57;;;;;;;2.05;89.11;101328.59;5114847;28;20031;-74
2022/04/04 06:04:48;;;;;;;18.80;12.13;;;;;;;2.16;88.71;101325.38;5131465;27;20019;-74
2022/04/04 06:07:13;;;;;;;19.25;11.30;;;;;;;2.20;87.93;101319.47;5134788;27;20079;-74
2022/04/04 06:09:39;;;;;;;15.73;11.20;;;;;;;2.23;88.69;101324.66;5120834;27;20114;-74
2022/04/04 06:12:04;;;;;;;17.20;11.23;;;;;;;2.27;87.87;101317.03;5110984;28;20368;-74
2022/04/04 06:14:29;;;;;;;19.83;11.40;;;;;;;2.30;87.58;101316.22;5099182;28;20041;-74
2022/04/04 06:16:55;;;;;;;17.08;11.07;;;;;;;2.33;86.73;101309.41;5102668;28;20033;-74
2022/04/04 06:19:20;;;;;;;17.85;10.77;;;;;;;2.39;86.99;101305.19;5113894;27;20042;-74
2022/04/04 06:21:45;;;;;;;18.17;11.98;;;;;;;2.41;87.09;101301.81;5098911;28;20040;-74
2022/04/04 06:24:11;;;;;;;17.92;11.55;;;;;;;2.50;86.67;101307.13;5119728;27;20043;-74
2022/04/04 06:26:36;;;;;;;17.67;11.95;;;;;;;2.55;85.63;101299.47;5096945;28;20028;-74
2022/04/04 06:29:02;;;;;;;16.00;10.40;;;;;;;2.61;85.56;101297.00;5094229;28;20032;-74
2022/04/04 06:31:27;;;;;;;16.88;11.60;;;;;;;2.63;86.04;101291.91;5100560;28;20031;-74
2022/04/04 06:33:52;;;;;;;22.90;11.60;;;;;;;2.71;85.85;101285.16;5111555;28;20059;-74
2022/04/04 06:36:18;;;;;;;19.27;11.63;;;;;;;2.83;84.85;101285.34;5107991;28;20118;-74
2022/04/04 06:38:43;;;;;;;18.75;10.32;;;;;;;2.96;83.81;101273.53;5109522;27;20028;-74
2022/04/04 06:41:09;;;;;;;15.45;11.02;;;;;;;3.15;83.37;101275.50;5113751;28;20099;-74
2022/04/04 06:43:34;;;;;;;17.02;10.88;;;;;;;3.30;82.79;101267.09;5113768;28;20027;-74
2022/04/04 06:46:02;;;;;;;19.92;10.27;;;;;;;3.42;82.44;101264.69;5114077;28;20115;-75
2022/04/04 06:48:27;;;;;;;19.35;11.13;;;;;;;3.47;82.04;101257.91;5112913;28;20380;-74
2022/04/04 06:50:53;;;;;;;16.92;10.40;;;;;;;3.49;81.87;101253.59;5103385;28;20085;-74
2022/04/04 06:53:21;;;;;;;18.65;9.85;;;;;;;3.54;81.21;101251.09;5107017;28;20024;-74
2022/04/04 06:55:47;;;;;;;17.90;10.13;;;;;;;3.51;81.07;101228.72;5093865;27;20028;-74
2022/04/04 06:58:12;;;;;;;19.25;10.63;;;;;;;3.69;80.23;101242.66;5119275;27;20037;-74
2022/04/04 07:00:37;;;;;;;16.20;9.43;;;;;;;3.74;79.81;101234.13;5117423;27;20073;-74
2022/04/04 07:03:03;;;;;;;15.32;10.82;;;;;;;3.86;79.74;101246.31;5112928;27;20490;-74
2022/04/04 07:05:28;;;;;;;15.40;10.23;;;;;;;3.90;78.50;101222.28;5111880;27;20400;-74
2022/04/04 07:07:54;;;;;;;17.92;10.13;;;;;;;3.91;79.21;101203.34;5098153;28;20023;-74
2022/04/04 07:10:20;;;;;;;15.98;9.98;;;;;;;4.07;78.10;101219.84;5120673;27;20526;-74
2022/04/04 07:12:45;;;;;;;16.45;9.25;;;;;;;4.18;78.69;101207.03;5118681;27;20027;-74
2022/04/04 07:15:11;;;;;;;17.33;9.48;;;;;;;4.28;77.65;101201.09;5093172;28;20023;-74
2022/04/04 07:17:38;;;;;;;20.10;10.02;;;;;;;4.35;77.25;101210.63;5093215;28;20031;-74
2022/04/04 07:20:05;;;;;;;17.13;10.25;;;;;;;4.33;77.42;101202.00;5095027;28;20081;-74
2022/04/04 07:22:37;;;;;;;14.50;9.30;;;;;;;4.34;76.78;101192.53;5092403;28;20060;-74
2022/04/04 07:25:07;;;;;;;19.10;9.73;;;;;;;4.30;75.90;101185.63;5107445;27;20500;-74
2022/04/04 07:27:33;;;;;;;17.42;9.65;;;;;;;4.29;75.77;101179.59;5132000;27;20558;-74
2022/04/04 07:29:58;;;;;;;12.85;9.23;;;;;;;4.32;76.81;101163.28;5125591;27;20113;-74
2022/04/04 07:32:23;;;;;;;16.48;9.23;;;;;;;4.37;76.44;101152.13;5132110;27;20031;-74
2022/04/04 07:34:49;;;;;;;13.95;9.27;;;;;;;4.43;75.88;101154.75;5113290;28;20024;-74
2022/04/04 07:37:15;;;;;;;15.68;9.77;;;;;;;4.52;75.23;101145.34;5112533;28;20032;-74
2022/04/04 07:39:40;;;;;;;17.02;9.75;;;;;;;4.61;75.66;101153.13;5111654;27;20032;-74
2022/04/04 07:42:06;;;;;;;17.08;9.38;;;;;;;4.71;74.96;101147.19;5113302;28;20020;-75
2022/04/04 07:44:31;;;;;;;13.50;9.30;;;;;;;4.79;74.89;101150.66;5111071;28;20026;-74
2022/04/04 07:46:57;;;;;;;16.50;9.60;;;;;;;4.83;74.13;101139.47;5122051;27;20185;-75
2022/04/04 07:49:23;;;;;;;15.75;9.63;;;;;;;4.86;74.42;101141.22;5116850;27;20044;-75
2022/04/04 07:51:48;;;;;;;12.85;9.70;;;;;;;4.88;74.00;101149.84;5122478;27;20027;-75
2022/04/04 07:54:13;;;;;;;16.77;10.30;;;;;;;4.87;73.94;101125.75;5102640;27;20809;-75
2022/04/04 07:56:39;;;;;;;18.40;10.00;;;;;;;4.99;73.49;101135.25;5110357;28;20028;-76
2022/04/04 07:59:04;;;;;;;20.00;9.95;;;;;;;4.93;73.62;101111.97;5111895;28;20437;-75
2022/04/04 08:01:29;;;;;;;16.92;10.25;;;;;;;5.10;74.05;101119.78;5110296;27;20403;-75
2022/04/04 08:03:54;;;;;;;16.05;10.07;;;;;;;5.24;73.79;101102.59;5110209;28;20027;-75
2022/04/04 08:06:20;;;;;;;17.33;10.07;;;;;;;5.30;72.94;101107.78;5098761;28;20024;-75
2022/04/04 08:08:45;;;;;;;15.13;10.27;;;;;;;5.42;72.04;101090.56;5126991;27;20030;-75
2022/04/04 08:11:11;;;;;;;16.45;9.60;;;;;;;5.51;71.77;101090.59;5092153;28;20076;-75
2022/04/04 08:13:42;;;;;;;16.38;9.45;;;;;;;5.66;72.38;101089.72;5096404;28;20031;-74
2022/04/04 08:16:08;;;;;;;15.88;8.80;;;;;;;5.82;71.12;101089.75;5118205;27;20028;-75
2022/04/04 08:18:34;;;;;;;16.13;9.57;;;;;;;5.86;70.36;101083.72;5109294;28;20132;-75
2022/04/04 08:20:59;;;;;;;14.40;9.05;;;;;;;5.97;70.57;101073.38;5111715;28;20068;-74
2022/04/04 08:23:29;;;;;;;13.57;9.98;;;;;;;6.04;69.87;101077.69;5115210;27;20027;-75
2022/04/04 08:25:55;;;;;;;13.57;9.43;;;;;;;6.04;69.45;101062.16;5107033;27;20055;-74
2022/04/04 08:28:21;;;;;;;17.00;9.52;;;;;;;6.12;69.08;101075.09;5116091;27;20459;-75
2022/04/04 08:30:47;;;;;;;12.43;7.78;;;;;;;6.17;68.65;101059.53;5117234;27;20031;-75
2022/04/04 08:33:12;;;;;;;16.20;8.65;;;;;;;6.18;68.52;101066.44;5111869;28;20123;-75
2022/04/04 08:35:38;;;;;;;15.70;8.57;;;;;;;6.23;67.46;101057.81;5107201;27;20500;-74
2022/04/04 08:38:03;;;;;;;16.75;7.85;;;;;;;6.26;67.53;101049.19;5114668;27;20020;-74
2022/04/04 08:40:29;;;;;;;19.20;8.70;;;;;;;6.34;67.83;101042.22;5105095;28;20364;-75
2022/04/04 08:42:54;;;;;;;14.20;8.45;;;;;;;6.46;66.84;101051.72;5100966;28;20377;-76
2022/04/04 08:45:20;;;;;;;20.27;8.98;;;;;;;6.59;65.57;101035.25;5109764;27;20051;-75
2022/04/04 08:47:46;;;;;;;14.35;7.82;;;;;;;6.69;66.37;101031.75;5090876;28;20028;-75
2022/04/04 08:50:12;;;;;;;20.00;8.70;;;;;;;6.77;64.08;101032.59;5091357;28;20036;-75
2022/04/04 08:52:39;;;;;;;17.15;7.97;;;;;;;6.84;64.80;101037.75;5101679;28;20122;-75
2022/04/04 08:55:04;;;;;;;18.70;8.77;;;;;;;6.86;64.72;101028.22;5106066;28;20033;-75
2022/04/04 08:57:30;;;;;;;16.65;8.07;;;;;;;6.88;63.83;101026.50;5094440;28;20028;-74
2022/04/04 08:59:55;;;;;;;20.75;7.80;;;;;;;6.81;64.44;101015.31;5099475;28;20028;-74
2022/04/04 09:02:20;;;;;;;21.42;8.15;;;;;;;6.76;65.18;101012.72;5110127;28;20027;-74
2022/04/04 09:04:51;;;;;;;26.23;8.40;;;;;;;6.70;65.32;101004.09;5096949;28;20113;-74
2022/04/04 09:07:18;;;;;;;19.40;7.97;;;;;;;6.57;65.41;101004.19;5108200;28;20023;-74
2022/04/04 09:09:46;;;;;;;22.45;8.00;;;;;;;6.43;66.22;101005.09;5102550;28;20063;-75
2022/04/04 09:12:14;;;;;;;45.60;9.95;;;;;;;6.29;67.33;101016.38;5113816;28;20073;-75
2022/04/04 09:14:51;;;;;;;28.35;9.05;;;;;;;6.12;68.39;100996.59;5102429;28;20494;-75
2022/04/04 09:17:20;;;;;;;27.17;8.60;;;;;;;6.10;68.71;101002.59;5115012;27;20023;-75
2022/04/04 09:19:45;;;;;;;15.70;8.35;;;;;;;6.10;68.56;100999.16;5112251;27;20067;-75
2022/04/04 09:22:14;;;;;;;18.50;8.60;;;;;;;6.11;69.00;101000.88;5110718;28;20112;-74
2022/04/04 09:24:47;;;;;;;22.85;8.75;;;;;;;6.11;69.22;101011.22;5114313;28;20568;-70
2022/04/04 09:27:16;;;;;;;30.55;9.25;;;;;;;6.08;69.82;100980.19;5102856;27;20028;-74
2022/04/04 09:29:43;;;;;;;20.48;9.10;;;;;;;6.16;70.24;100987.94;5100463;28;20618;-74
2022/04/04 09:32:14;;;;;;;25.27;10.00;;;;;;;6.12;70.62;100994.84;5097908;28;20392;-73
2022/04/04 09:34:49;;;;;;;19.85;9.23;;;;;;;5.92;73.37;100966.41;5106239;28;20043;-74
2022/04/04 09:37:17;;;;;;;18.98;9.13;;;;;;;5.72;74.39;100958.69;5094350;28;20032;-74
2022/04/04 09:39:43;;;;;;;12.63;8.80;;;;;;;5.58;76.27;100973.34;5112281;27;20028;-73
2022/04/04 09:42:19;;;;;;;22.15;10.40;;;;;;;5.47;77.64;100960.44;5104747;28;20585;-75
2022/04/04 09:45:03;;;;;;;14.88;10.68;;;;;;;5.26;78.85;100957.84;5100685;27;20028;-76
2022/04/04 09:47:49;;;;;;;17.75;10.55;;;;;;;5.07;81.43;100972.50;5094235;28;20211;-73
2022/04/04 09:50:37;;;;;;;21.83;11.05;;;;;;;4.91;82.66;100963.84;5105434;28;20051;-73
2022/04/04 09:53:08;;;;;;;16.70;10.85;;;;;;;4.75;85.00;100962.97;5104782;28;20432;-74
2022/04/04 09:55:45;;;;;;;16.27;10.05;;;;;;;4.64;86.08;100956.88;5113007;28;20110;-74
2022/04/04 09:58:16;;;;;;;22.27;11.73;;;;;;;4.56;85.86;100959.47;5114337;28;20103;-74
2022/04/04 10:00:45;;;;;;;19.63;11.43;;;;;;;4.51;87.86;100953.41;5113231;27;20023;-74
2022/04/04 10:03:14;;;;;;;21.17;12.55;;;;;;;4.51;88.36;100958.56;5114940;28;20483;-74
2022/04/04 10:05:45;;;;;;;20.25;11.50;;;;;;;4.46;86.64;100955.13;5102036;27;20032;-73
2022/04/04 10:08:15;;;;;;;19.40;11.80;;;;;;;4.44;89.37;100943.91;5103234;27;20024;-73
2022/04/04 10:10:41;;;;;;;18.75;12.20;;;;;;;4.41;90.28;100944.78;5107257;27;20432;-73
2022/04/04 10:13:11;;;;;;;19.45;12.60;;;;;;;4.52;90.72;100938.81;5094079;28;20025;-72
2022/04/04 10:15:37;;;;;;;20.98;11.95;;;;;;;4.54;90.33;100945.66;5094299;28;20036;-73
2022/04/04 10:18:02;;;;;;;18.73;12.02;;;;;;;4.52;91.57;100944.81;5107364;28;20371;-74
2022/04/04 10:20:28;;;;;;;19.35;14.00;;;;;;;4.50;91.69;100938.78;5105883;27;20375;-73
2022/04/04 10:22:54;;;;;;;22.70;14.00;;;;;;;4.46;94.86;100935.31;5098186;28;20039;-73
2022/04/04 10:25:26;;;;;;;23.67;14.15;;;;;;;4.54;95.82;100934.47;5105850;28;20107;-73
2022/04/04 10:27:52;;;;;;;22.63;14.32;;;;;;;4.54;95.37;100934.47;5097237;28;20036;-73
2022/04/04 10:30:29;;;;;;;17.70;13.65;;;;;;;4.45;95.29;100938.78;5114256;28;20038;-73
2022/04/04 10:32:54;;;;;;;21.80;13.20;;;;;;;4.37;95.96;100930.13;5102772;28;20372;-75
2022/04/04 10:35:22;;;;;;;22.77;14.40;;;;;;;4.35;97.91;100930.97;5098694;28;20026;-73
2022/04/04 10:37:47;;;;;;;21.85;14.77;;;;;;;4.43;98.35;100932.72;5094118;28;20051;-73
2022/04/04 10:40:25;;;;;;;23.92;14.95;;;;;;;4.43;99.13;100924.13;5109449;27;20104;-73
2022/04/04 10:43:02;;;;;;;23.70;15.18;;;;;;;4.47;99.55;100931.88;5113904;28;20085;-73
2022/04/04 10:45:29;;;;;;;22.02;15.40;;;;;;;4.49;100.00;100931.03;5114092;28;20060;-74
2022/04/04 10:48:04;;;;;;;30.45;16.30;;;;;;;4.52;100.00;100926.75;5112336;27;20069;-74
2022/04/04 10:50:32;;;;;;;25.88;15.23;;;;;;;4.47;100.00;100937.03;5104577;27;20436;-74
2022/04/04 10:53:00;;;;;;;23.65;16.55;;;;;;;4.41;100.00;100928.41;5108951;28;20039;-74
2022/04/04 10:55:43;;;;;;;26.65;17.27;;;;;;;4.48;100.00;100917.28;5116692;27;20034;-75
2022/04/04 10:58:12;;;;;;;25.00;17.98;;;;;;;4.50;100.00;100925.88;5114068;28;20024;-75
2022/04/04 11:00:57;;;;;;;27.67;16.30;;;;;;;4.53;100.00;100919.84;5113760;28;20019;-75
2022/04/04 11:03:32;;;;;;;26.45;16.55;;;;;;;4.49;100.00;100903.50;5113675;28;20030;-75
2022/04/04 11:09:01;;;;;;;26.98;17.13;;;;;;;4.54;100.00;100890.59;5093458;28;20043;-75
2022/04/04 11:11:56;;;;;;;23.27;17.17;;;;;;;4.63;100.00;100896.63;5111118;28;20066;-75
2022/04/04 11:14:27;;;;;;;23.80;16.65;;;;;;;4.64;100.00;100905.25;5110313;27;20024;-76
2022/04/04 11:17:08;;;;;;;30.02;17.40;;;;;;;4.60;100.00;100896.63;5102185;28;20020;-76
2022/04/04 11:19:48;;;;;;;23.92;16.02;;;;;;;4.56;100.00;100894.06;5112008;27;20027;-76
2022/04/04 11:22:15;;;;;;;24.10;17.45;;;;;;;4.50;100.00;100888.88;5112054;27;20467;-76
2022/04/04 11:24:43;;;;;;;23.33;16.33;;;;;;;4.54;100.00;100880.25;5113386;28;20023;-76
2022/04/04 11:27:10;;;;;;;22.48;16.08;;;;;;;4.52;100.00;100893.19;5118595;27;20027;-76